createdAt,value
2019-02-24T00:01:32.920Z,101916.91
2019-02-24T00:04:03.425Z,101914.70
2019-02-24T00:06:33.876Z,101916.46
2019-02-24T00:09:04.706Z,101918.73
2019-02-24T00:11:35.159Z,101922.72
2019-02-24T00:14:05.714Z,101923.23
2019-02-24T00:16:36.216Z,101920.94
2019-02-24T00:19:07.842Z,101920.66
2019-02-24T00:21:38.331Z,101916.11
2019-02-24T00:24:08.832Z,101911.97
2019-02-24T00:26:39.288Z,101913.27
2019-02-24T00:29:09.790Z,101905.13
2019-02-24T00:31:40.294Z,101905.13
2019-02-24T00:34:13.815Z,101911.79
2019-02-24T00:36:44.327Z,101903.55
2019-02-24T00:39:14.821Z,101909.50
2019-02-24T00:41:45.323Z,101907.41
2019-02-24T00:44:15.794Z,101907.35
2019-02-24T00:46:46.372Z,101904.67
2019-02-24T00:49:16.838Z,101903.64
2019-02-24T00:51:47.329Z,101899.57
2019-02-24T00:54:17.793Z,101905.91
2019-02-24T00:56:48.289Z,101902.31
2019-02-24T00:59:18.747Z,101900.59
2019-02-24T01:01:49.236Z,101897.70
2019-02-24T01:04:19.735Z,101753.09
2019-02-24T01:06:50.238Z,101901.67
2019-02-24T01:09:20.728Z,101899.70
2019-02-24T01:11:51.224Z,101901.67
2019-02-24T01:14:21.694Z,101896.57
2019-02-24T01:16:52.198Z,101900.47
2019-02-24T01:19:22.685Z,101898.95
2019-02-24T01:21:54.587Z,101898.08
2019-02-24T01:24:25.022Z,101898.58
2019-02-24T01:26:55.530Z,101898.19
2019-02-24T01:29:26.007Z,101900.48
2019-02-24T01:31:56.468Z,101905.89
2019-02-24T01:34:26.971Z,101912.42
2019-02-24T01:36:57.434Z,101912.61
2019-02-24T01:39:27.944Z,101917.91
2019-02-24T01:41:58.412Z,101914.41
2019-02-24T01:44:28.901Z,101911.24
2019-02-24T01:46:59.399Z,101908.03
2019-02-24T01:49:29.853Z,101910.05
2019-02-24T01:52:00.552Z,101910.88
2019-02-24T01:54:31.000Z,101904.42
2019-02-24T01:57:01.494Z,101903.97
2019-02-24T01:59:31.956Z,101899.59
2019-02-24T02:02:02.456Z,101898.44
2019-02-24T02:04:32.954Z,101899.11
2019-02-24T02:07:03.412Z,101896.55
2019-02-24T02:09:33.906Z,101894.26
2019-02-24T02:12:04.363Z,101901.33
2019-02-24T02:14:34.875Z,101889.24
2019-02-24T02:17:05.424Z,101888.39
2019-02-24T02:19:35.881Z,101893.90
2019-02-24T02:22:06.395Z,101895.02
2019-02-24T02:24:36.860Z,101883.94
2019-02-24T02:27:07.338Z,101887.44
2019-02-24T02:29:37.833Z,101887.19
2019-02-24T02:32:08.337Z,101886.59
2019-02-24T02:34:38.815Z,101888.67
2019-02-24T02:37:09.273Z,101891.81
2019-02-24T02:39:39.810Z,101900.04
2019-02-24T02:42:10.259Z,101897.55
2019-02-24T02:44:40.768Z,101893.78
2019-02-24T02:47:11.236Z,101896.83
2019-02-24T02:49:41.732Z,101904.30
2019-02-24T02:52:12.238Z,101903.73
2019-02-24T02:54:42.744Z,101911.78
2019-02-24T02:57:13.205Z,101910.92
2019-02-24T02:59:43.698Z,101901.93
2019-02-24T03:02:23.828Z,101904.05
2019-02-24T03:04:46.345Z,101908.30
2019-02-24T03:07:24.408Z,101906.02
2019-02-24T03:09:54.919Z,101901.07
2019-02-24T03:12:25.440Z,101900.03
2019-02-24T03:14:55.951Z,101899.19
2019-02-24T03:17:26.604Z,101896.17
2019-02-24T03:19:57.070Z,101902.19
2019-02-24T03:22:27.670Z,101900.30
2019-02-24T03:24:58.142Z,101903.16
2019-02-24T03:27:28.664Z,101892.15
2019-02-24T03:29:59.174Z,101890.00
2019-02-24T03:32:29.678Z,101901.81
2019-02-24T03:35:00.298Z,101901.47
2019-02-24T03:37:30.750Z,101892.97
2019-02-24T03:40:01.362Z,101889.90
2019-02-24T03:42:31.835Z,101896.09
2019-02-24T03:45:02.357Z,101893.92
2019-02-24T03:47:32.877Z,101889.59
2019-02-24T03:50:03.414Z,101893.24
2019-02-24T03:52:33.870Z,101890.20
2019-02-24T03:55:04.728Z,101888.50
2019-02-24T03:57:35.339Z,101895.79
2019-02-24T04:00:06.231Z,101892.36
2019-02-24T04:02:36.741Z,101893.61
2019-02-24T04:05:07.427Z,101892.21
2019-02-24T04:07:37.925Z,101889.09
2019-02-24T04:10:08.540Z,101895.39
2019-02-24T04:12:39.052Z,101895.56
2019-02-24T04:15:09.571Z,101893.66
2019-02-24T04:17:40.109Z,101901.77
2019-02-24T04:20:10.629Z,101901.70
2019-02-24T04:22:41.151Z,101903.91
2019-02-24T04:25:11.648Z,101899.90
2019-02-24T04:27:42.253Z,101901.81
2019-02-24T04:30:12.807Z,101908.72
2019-02-24T04:32:43.314Z,101899.75
2019-02-24T04:35:13.870Z,101901.08
2019-02-24T04:37:44.397Z,101902.29
2019-02-24T04:40:14.861Z,101895.30
2019-02-24T04:42:45.388Z,101896.52
2019-02-24T04:45:15.897Z,101896.59
2019-02-24T04:47:46.376Z,101899.60
2019-02-24T04:50:16.890Z,101898.66
2019-02-24T04:52:47.401Z,101901.86
2019-02-24T04:55:17.873Z,101902.48
2019-02-24T04:57:48.397Z,101901.01
2019-02-24T05:00:18.868Z,101901.14
2019-02-24T05:02:49.386Z,101906.50
2019-02-24T05:05:19.856Z,101907.53
2019-02-24T05:07:50.333Z,101903.17
2019-02-24T05:10:20.967Z,101908.34
2019-02-24T05:12:51.485Z,101907.91
2019-02-24T05:15:21.959Z,101914.15
2019-02-24T05:17:52.460Z,101911.39
2019-02-24T05:20:22.944Z,101917.38
2019-02-24T05:22:53.447Z,101925.59
2019-02-24T05:25:23.964Z,101920.48
2019-02-24T05:27:54.439Z,101937.88
2019-02-24T05:30:24.938Z,101928.93
2019-02-24T05:32:55.433Z,101931.62
2019-02-24T05:35:25.907Z,101927.63
2019-02-24T05:37:56.417Z,101935.02
2019-02-24T05:40:26.979Z,101931.09
2019-02-24T05:42:57.441Z,101928.48
2019-02-24T05:45:28.004Z,101929.45
2019-02-24T05:47:58.523Z,101935.52
2019-02-24T05:50:29.041Z,101943.89
2019-02-24T05:52:59.509Z,101942.56
2019-02-24T05:55:30.002Z,101945.47
2019-02-24T05:58:00.470Z,101954.58
2019-02-24T06:00:30.977Z,101952.03
2019-02-24T06:03:01.476Z,101953.45
2019-02-24T06:05:31.947Z,101951.25
2019-02-24T06:08:02.459Z,101953.64
2019-02-24T06:10:32.941Z,101957.16
2019-02-24T06:13:03.445Z,101958.48
2019-02-24T06:15:33.909Z,101958.10
2019-02-24T06:18:04.427Z,101956.30
2019-02-24T06:20:34.892Z,101956.13
2019-02-24T06:23:05.510Z,101959.34
2019-02-24T06:25:36.025Z,101953.52
2019-02-24T06:28:06.502Z,101961.12
2019-02-24T06:30:36.995Z,101958.46
2019-02-24T06:33:07.461Z,101965.66
2019-02-24T06:35:38.021Z,101962.75
2019-02-24T06:38:08.535Z,101976.88
2019-02-24T06:40:38.999Z,101970.81
2019-02-24T06:43:09.526Z,101974.39
2019-02-24T06:45:39.987Z,101981.64
2019-02-24T06:48:10.489Z,101980.27
2019-02-24T06:50:58.787Z,101974.80
2019-02-24T06:53:29.351Z,101978.91
2019-02-24T06:55:59.822Z,101984.86
2019-02-24T06:58:30.359Z,101982.73
2019-02-24T07:01:00.823Z,101987.44
2019-02-24T07:03:31.361Z,101980.83
2019-02-24T07:06:01.814Z,101993.82
2019-02-24T07:08:32.264Z,101996.17
2019-02-24T07:11:02.760Z,101993.88
2019-02-24T07:13:33.269Z,101998.02
2019-02-24T07:16:03.781Z,101995.73
2019-02-24T07:18:34.278Z,102001.05
2019-02-24T07:21:04.848Z,101997.23
2019-02-24T07:23:35.362Z,101994.23
2019-02-24T07:26:05.834Z,101987.50
2019-02-24T07:28:36.340Z,101982.13
2019-02-24T07:31:06.803Z,101989.87
2019-02-24T07:33:37.326Z,101986.27
2019-02-24T07:36:07.806Z,101998.45
2019-02-24T07:38:38.353Z,101992.66
2019-02-24T07:41:08.823Z,101988.47
2019-02-24T07:43:39.330Z,101987.98
2019-02-24T07:46:09.799Z,101985.87
2019-02-24T07:48:40.423Z,101980.55
2019-02-24T07:51:12.376Z,101983.64
2019-02-24T07:53:43.024Z,101985.48
2019-02-24T07:56:13.532Z,101986.19
2019-02-24T07:58:43.988Z,101977.43
2019-02-24T08:01:14.515Z,101981.11
2019-02-24T08:03:44.974Z,101984.41
2019-02-24T08:06:15.485Z,101983.10
2019-02-24T08:08:46.141Z,101982.32
2019-02-24T08:11:16.653Z,101979.55
2019-02-24T08:13:47.155Z,101979.75
2019-02-24T08:16:17.665Z,101978.02
2019-02-24T08:18:49.977Z,101980.92
2019-02-24T08:21:20.297Z,101979.63
2019-02-24T08:23:50.798Z,101980.66
2019-02-24T08:26:21.307Z,101980.38
2019-02-24T08:28:51.782Z,101977.28
2019-02-24T08:31:22.299Z,101982.41
2019-02-24T08:33:52.774Z,101979.48
2019-02-24T08:36:23.241Z,101976.68
2019-02-24T08:38:53.752Z,101976.68
2019-02-24T08:41:24.236Z,101966.03
2019-02-24T08:43:54.751Z,101966.03
2019-02-24T08:46:25.221Z,101972.84
2019-02-24T08:48:55.734Z,101966.47
2019-02-24T08:51:26.205Z,101968.23
2019-02-24T08:53:56.717Z,101964.89
2019-02-24T08:56:27.186Z,101970.71
2019-02-24T08:58:57.658Z,101966.63
2019-02-24T09:01:28.175Z,101966.63
2019-02-24T09:03:58.661Z,101970.85
2019-02-24T09:06:29.148Z,101970.85
2019-02-24T09:08:59.681Z,101973.07
2019-02-24T09:11:30.136Z,101972.45
2019-02-24T09:14:00.636Z,101979.59
2019-02-24T09:16:31.118Z,101969.62
2019-02-24T09:19:01.621Z,101973.16
2019-02-24T09:21:32.089Z,101972.98
2019-02-24T09:24:02.606Z,101957.56
2019-02-24T09:26:33.067Z,101957.56
2019-02-24T09:29:03.573Z,101962.70
2019-02-24T09:31:34.188Z,101962.70
2019-02-24T09:34:04.663Z,101961.41
2019-02-24T09:36:35.178Z,101957.86
2019-02-24T09:39:06.584Z,101957.78
2019-02-24T09:41:37.091Z,101957.78
2019-02-24T09:44:07.601Z,101955.29
2019-02-24T09:46:38.084Z,101943.41
2019-02-24T09:49:08.578Z,101943.41
2019-02-24T09:51:39.038Z,101938.80
2019-02-24T09:54:09.498Z,101938.80
2019-02-24T09:56:40.037Z,101937.50
2019-02-24T09:59:10.493Z,101937.48
2019-02-24T10:01:41.018Z,101935.31
2019-02-24T10:04:11.496Z,101935.31
2019-02-24T10:06:41.971Z,101931.91
2019-02-24T10:09:12.472Z,101921.82
2019-02-24T10:11:42.936Z,101925.57
2019-02-24T10:14:13.466Z,101925.57
2019-02-24T10:16:43.930Z,101925.39
2019-02-24T10:19:14.385Z,101922.86
2019-02-24T10:21:44.889Z,101921.47
2019-02-24T10:24:15.361Z,101916.17
2019-02-24T10:26:45.873Z,101917.13
2019-02-24T10:29:16.345Z,101913.72
2019-02-24T10:31:46.818Z,101907.58
2019-02-24T10:34:17.370Z,101902.59
2019-02-24T10:36:47.886Z,101903.72
2019-02-24T10:39:18.467Z,101899.61
2019-02-24T10:41:48.931Z,101896.21
2019-02-24T10:44:19.410Z,101890.91
2019-02-24T10:46:49.927Z,101888.33
2019-02-24T10:49:20.395Z,101888.14
2019-02-24T10:51:50.868Z,101886.80
2019-02-24T10:54:21.463Z,101881.36
2019-02-24T10:56:51.948Z,101879.91
2019-02-24T10:59:22.402Z,101876.87
2019-02-24T11:01:52.889Z,101873.30
2019-02-24T11:04:23.447Z,101859.51
2019-02-24T11:06:53.947Z,101857.71
2019-02-24T11:09:24.408Z,101857.71
2019-02-24T11:11:54.915Z,101839.95
2019-02-24T11:14:25.369Z,101839.95
2019-02-24T11:16:55.812Z,101831.20
2019-02-24T11:19:26.323Z,101832.92
2019-02-24T11:21:56.900Z,101826.20
2019-02-24T11:24:27.383Z,101830.48
2019-02-24T11:26:57.870Z,101825.55
2019-02-24T11:29:28.323Z,101826.41
2019-02-24T11:31:58.872Z,101816.84
2019-02-24T11:34:29.331Z,101816.84
2019-02-24T11:36:59.844Z,101814.08
2019-02-24T11:39:30.296Z,101808.50
2019-02-24T11:42:00.903Z,101806.95
2019-02-24T11:44:31.360Z,101798.11
2019-02-24T11:47:01.827Z,101788.88
2019-02-24T11:49:32.340Z,101791.30
2019-02-24T11:52:04.067Z,101776.47
2019-02-24T11:54:34.646Z,101791.06
2019-02-24T11:57:05.113Z,101780.05
2019-02-24T11:59:35.578Z,101780.67
2019-02-24T12:02:06.069Z,101780.67
2019-02-24T12:04:36.570Z,101767.72
2019-02-24T12:07:07.066Z,101767.72
2019-02-24T12:09:37.656Z,101777.45
2019-02-24T12:12:08.243Z,101778.23
2019-02-24T12:14:38.697Z,101770.80
2019-02-24T12:17:09.212Z,101769.96
2019-02-24T12:19:39.719Z,101769.96
2019-02-24T12:22:10.207Z,101765.91
2019-02-24T12:24:40.665Z,101767.83
2019-02-24T12:27:11.156Z,101758.59
2019-02-24T12:29:41.613Z,101757.77
2019-02-24T12:32:12.124Z,101759.09
2019-02-24T12:34:42.633Z,101754.91
2019-02-24T12:37:13.148Z,101757.16
2019-02-24T12:39:43.608Z,101750.30
2019-02-24T12:42:14.072Z,101743.02
2019-02-24T12:44:44.587Z,101750.27
2019-02-24T12:47:15.042Z,101740.60
2019-02-24T12:49:45.505Z,101740.09
2019-02-24T12:52:16.007Z,101736.92
2019-02-24T12:54:46.511Z,101736.80
2019-02-24T12:57:17.158Z,101731.52
2019-02-24T12:59:47.656Z,101726.57
2019-02-24T13:02:18.359Z,101719.62
2019-02-24T13:04:48.826Z,101715.74
2019-02-24T13:07:19.271Z,101715.94
2019-02-24T13:09:50.706Z,101711.77
2019-02-24T13:12:21.214Z,101710.88
2019-02-24T13:14:51.672Z,101710.34
2019-02-24T13:17:22.186Z,101713.40
2019-02-24T13:19:52.644Z,101709.74
2019-02-24T13:22:23.145Z,101708.28
2019-02-24T13:24:53.634Z,101702.18
2019-02-24T13:27:24.085Z,101700.59
2019-02-24T13:29:54.583Z,101704.90
2019-02-24T13:32:25.026Z,101697.70
2019-02-24T13:34:55.520Z,101695.91
2019-02-24T13:37:26.007Z,101693.48
2019-02-24T13:39:56.509Z,101690.50
2019-02-24T13:42:26.965Z,101685.45
2019-02-24T13:44:57.569Z,101690.80
2019-02-24T13:47:28.073Z,101687.78
2019-02-24T13:49:58.555Z,101688.54
2019-02-24T13:52:29.060Z,101692.64
2019-02-24T13:54:59.541Z,101684.31
2019-02-24T13:57:30.032Z,101685.44
2019-02-24T14:00:00.480Z,101684.31
2019-02-24T14:02:30.968Z,101684.02
2019-02-24T14:05:01.484Z,101684.52
2019-02-24T14:07:32.096Z,101678.02
2019-02-24T14:10:02.572Z,101682.84
2019-02-24T14:12:33.025Z,101681.67
2019-02-24T14:15:03.517Z,101683.59
2019-02-24T14:17:33.974Z,101681.09
2019-02-24T14:20:04.632Z,101681.05
2019-02-24T14:22:35.082Z,101678.91
2019-02-24T14:25:05.930Z,101674.27
2019-02-24T14:27:36.426Z,101678.41
2019-02-24T14:30:08.477Z,101675.48
2019-02-24T14:32:38.938Z,101678.36
2019-02-24T14:35:11.217Z,101679.27
2019-02-24T14:37:41.663Z,101677.94
2019-02-24T14:40:12.186Z,101680.87
2019-02-24T14:42:42.697Z,101680.25
2019-02-24T14:45:15.063Z,101676.59
2019-02-24T14:47:45.533Z,101675.47
2019-02-24T14:50:16.110Z,101678.14
2019-02-24T14:52:46.607Z,101678.98
2019-02-24T14:55:17.214Z,101676.67
2019-02-24T14:57:47.679Z,101680.69
2019-02-24T15:00:18.268Z,101681.95
2019-02-24T15:02:48.721Z,101670.53
2019-02-24T15:05:19.219Z,101670.53
2019-02-24T15:07:49.767Z,101674.25
2019-02-24T15:10:20.296Z,101672.37
2019-02-24T15:12:50.755Z,101669.32
2019-02-24T15:15:21.317Z,101673.13
2019-02-24T15:17:51.767Z,101670.16
2019-02-24T15:20:22.372Z,101671.97
2019-02-24T15:22:52.876Z,101668.50
2019-02-24T15:25:23.440Z,101672.02
2019-02-24T15:27:53.924Z,101667.08
2019-02-24T15:30:27.152Z,101673.94
2019-02-24T15:32:57.629Z,101674.02
2019-02-24T15:35:28.184Z,101669.29
2019-02-24T15:37:58.642Z,101673.84
2019-02-24T15:40:29.156Z,101672.13
2019-02-24T15:42:59.724Z,101673.13
2019-02-24T15:45:30.314Z,101678.02
2019-02-24T15:48:00.918Z,101661.36
2019-02-24T15:50:31.367Z,101661.36
2019-02-24T15:53:01.871Z,101668.42
2019-02-24T15:55:32.500Z,101668.55
2019-02-24T15:58:02.965Z,101679.38
2019-02-24T16:00:33.423Z,101675.73
2019-02-24T16:03:03.932Z,101674.25
2019-02-24T16:05:34.429Z,101674.65
2019-02-24T16:08:04.981Z,101669.45
2019-02-24T16:10:35.481Z,101679.50
2019-02-24T16:13:06.074Z,101680.22
2019-02-24T16:15:36.543Z,101684.69
2019-02-24T16:18:07.150Z,101684.69
2019-02-24T16:20:37.661Z,101674.14
2019-02-24T16:23:08.173Z,101674.14
2019-02-24T16:25:38.700Z,101683.45
2019-02-24T16:28:09.167Z,101698.36
2019-02-24T16:30:39.671Z,101696.68
2019-02-24T16:33:10.874Z,101696.68
2019-02-24T16:35:41.610Z,101698.98
2019-02-24T16:38:12.076Z,101698.98
2019-02-24T16:40:42.571Z,101692.70
2019-02-24T16:43:13.042Z,101692.70
2019-02-24T16:45:43.543Z,101698.86
2019-02-24T16:48:14.008Z,101706.88
2019-02-24T16:50:44.511Z,101702.77
2019-02-24T16:53:15.026Z,101711.61
2019-02-24T16:55:45.637Z,101584.89
2019-02-24T16:58:16.112Z,101584.89
2019-02-24T17:00:46.638Z,101704.38
2019-02-24T17:03:19.794Z,101708.63
2019-02-24T17:05:49.380Z,101707.20
2019-02-24T17:08:19.863Z,101706.98
2019-02-24T17:10:50.354Z,101713.53
2019-02-24T17:13:20.869Z,101713.53
2019-02-24T17:15:51.328Z,101720.51
2019-02-24T17:18:21.823Z,101721.45
2019-02-24T17:20:52.279Z,101718.57
2019-02-24T17:23:22.787Z,101724.53
2019-02-24T17:25:53.268Z,101724.53
2019-02-24T17:28:23.738Z,101707.67
2019-02-24T17:30:54.256Z,101707.67
2019-02-24T17:33:29.966Z,101712.07
2019-02-24T17:35:56.966Z,101721.87
2019-02-24T17:38:27.464Z,101716.41
2019-02-24T17:40:57.959Z,101712.13
2019-02-24T17:43:28.506Z,101712.13
2019-02-24T17:45:58.961Z,101707.94
2019-02-24T17:48:29.460Z,101707.45
2019-02-24T17:50:59.924Z,101708.18
2019-02-24T17:53:30.421Z,101708.18
2019-02-24T17:56:00.916Z,101713.41
2019-02-24T17:58:31.424Z,101719.03
2019-02-24T18:01:03.761Z,101719.03
2019-02-24T18:03:39.491Z,101710.58
2019-02-24T18:06:06.419Z,101713.48
2019-02-24T18:08:36.887Z,101717.14
2019-02-24T18:11:07.357Z,101715.81
2019-02-24T18:13:37.867Z,101722.30
2019-02-24T18:16:08.337Z,101730.19
2019-02-24T18:18:38.953Z,101706.91
2019-02-24T18:21:09.472Z,101720.50
2019-02-24T18:23:39.946Z,101726.44
2019-02-24T18:26:10.443Z,101728.37
2019-02-24T18:28:40.915Z,101727.30
2019-02-24T18:31:11.392Z,101727.64
2019-02-24T18:33:48.113Z,101725.70
2019-02-24T18:36:14.041Z,101731.30
2019-02-24T18:38:44.504Z,101732.28
2019-02-24T18:41:15.004Z,101723.53
2019-02-24T18:43:45.491Z,101723.53
2019-02-24T18:46:15.988Z,101723.18
2019-02-24T18:48:46.484Z,101732.38
2019-02-24T18:51:16.935Z,101732.38
2019-02-24T18:53:47.548Z,101733.86
2019-02-24T18:56:18.004Z,101730.09
2019-02-24T18:58:48.464Z,101734.83
2019-02-24T19:01:18.975Z,101734.83
2019-02-24T19:03:57.378Z,101734.70
2019-02-24T19:06:21.646Z,101731.64
2019-02-24T19:08:52.157Z,101732.97
2019-02-24T19:11:22.632Z,101733.09
2019-02-24T19:13:53.123Z,101733.48
2019-02-24T19:16:23.636Z,101735.05
2019-02-24T19:18:54.088Z,101733.59
2019-02-24T19:21:24.535Z,101736.23
2019-02-24T19:23:55.023Z,101739.75
2019-02-24T19:26:25.588Z,101734.88
2019-02-24T19:28:56.043Z,101737.30
2019-02-24T19:31:26.527Z,101735.72
2019-02-24T19:33:57.087Z,101739.96
2019-02-24T19:36:27.631Z,101740.55
2019-02-24T19:38:58.137Z,101740.70
2019-02-24T19:41:28.618Z,101739.59
2019-02-24T19:43:59.065Z,101736.91
2019-02-24T19:46:29.596Z,101730.84
2019-02-24T19:49:00.052Z,101732.65
2019-02-24T19:51:30.515Z,101726.94
2019-02-24T19:54:01.009Z,101731.70
2019-02-24T19:56:31.478Z,101727.81
2019-02-24T19:59:01.964Z,101725.63
2019-02-24T20:01:32.457Z,101717.26
2019-02-24T20:04:02.962Z,101719.78
2019-02-24T20:06:33.470Z,101724.17
2019-02-24T20:09:05.801Z,101728.30
2019-02-24T20:11:36.275Z,101730.39
2019-02-24T20:14:06.813Z,101723.84
2019-02-24T20:16:37.273Z,101731.36
2019-02-24T20:19:07.726Z,101728.09
2019-02-24T20:21:38.221Z,101732.58
2019-02-24T20:24:08.715Z,101729.83
2019-02-24T20:26:39.173Z,101727.89
2019-02-24T20:29:09.672Z,101729.22
2019-02-24T20:31:40.133Z,101724.11
2019-02-24T20:34:11.932Z,101717.34
2019-02-24T20:36:42.387Z,101722.55
2019-02-24T20:39:13.121Z,101718.68
2019-02-24T20:41:43.591Z,101720.02
2019-02-24T20:44:14.199Z,101724.36
2019-02-24T20:46:44.711Z,101719.52
2019-02-24T20:49:15.165Z,101719.30
2019-02-24T20:51:45.667Z,101723.28
2019-02-24T20:54:16.116Z,101721.23
2019-02-24T20:56:46.611Z,101722.69
2019-02-24T20:59:17.125Z,101723.03
2019-02-24T21:01:47.587Z,101722.42
2019-02-24T21:04:18.047Z,101717.84
2019-02-24T21:06:48.547Z,101727.41
2019-02-24T21:09:19.011Z,101722.81
2019-02-24T21:11:49.506Z,101724.87
2019-02-24T21:14:20.004Z,101721.23
2019-02-24T21:16:50.462Z,101720.63
2019-02-24T21:19:20.961Z,101725.70
2019-02-24T21:21:51.460Z,101724.75
2019-02-24T21:24:21.952Z,101721.97
2019-02-24T21:26:52.453Z,101722.42
2019-02-24T21:29:22.912Z,101725.48
2019-02-24T21:31:53.370Z,101723.42
2019-02-24T21:34:23.870Z,101721.95
2019-02-24T21:36:54.334Z,101724.61
2019-02-24T21:39:24.828Z,101724.61
2019-02-24T21:41:55.286Z,101722.08
2019-02-24T21:44:25.788Z,101723.54
2019-02-24T21:46:56.291Z,101719.89
2019-02-24T21:49:26.793Z,101728.98
2019-02-24T21:51:57.281Z,101728.98
2019-02-24T21:54:27.733Z,101733.09
2019-02-24T21:56:58.233Z,101732.14
2019-02-24T21:59:36.764Z,101728.03
2019-02-24T22:02:00.859Z,101601.30
2019-02-24T22:04:31.356Z,101732.02
2019-02-24T22:07:01.819Z,101737.38
2019-02-24T22:09:32.348Z,101735.40
2019-02-24T22:12:02.811Z,101738.80
2019-02-24T22:14:33.268Z,101738.43
2019-02-24T22:17:03.769Z,101737.83
2019-02-24T22:19:34.228Z,101741.81
2019-02-24T22:22:04.728Z,101753.23
2019-02-24T22:24:35.231Z,101741.48
2019-02-24T22:27:05.736Z,101743.91
2019-02-24T22:29:36.593Z,101743.55
2019-02-24T22:32:07.149Z,101741.83
2019-02-24T22:34:37.651Z,101741.00
2019-02-24T22:37:08.135Z,101742.69
2019-02-24T22:39:38.628Z,101744.41
2019-02-24T22:42:09.080Z,101736.77
2019-02-24T22:44:39.542Z,101737.12
2019-02-24T22:47:10.015Z,101736.14
2019-02-24T22:49:40.508Z,101741.83
2019-02-24T22:52:10.973Z,101740.62
2019-02-24T22:54:41.464Z,101736.97
2019-02-24T22:57:11.968Z,101734.58
2019-02-24T22:59:42.426Z,101736.14
2019-02-24T23:02:13.030Z,101737.83
2019-02-24T23:04:43.532Z,101747.88
2019-02-24T23:07:13.994Z,101744.95
2019-02-24T23:09:44.497Z,101749.38
2019-02-24T23:12:14.960Z,101743.71
2019-02-24T23:14:45.759Z,101745.53
2019-02-24T23:17:16.218Z,101746.03
2019-02-24T23:19:46.732Z,101745.84
2019-02-24T23:22:17.185Z,101747.45
2019-02-24T23:24:47.656Z,101746.27
2019-02-24T23:27:18.148Z,101742.53
2019-02-24T23:29:48.649Z,101747.24
2019-02-24T23:32:19.166Z,101745.28
2019-02-24T23:34:49.672Z,101737.41
2019-02-24T23:37:20.148Z,101744.95
2019-02-24T23:39:50.686Z,101742.84
2019-02-24T23:42:21.257Z,101733.83
2019-02-24T23:44:51.872Z,101724.36
2019-02-24T23:47:22.390Z,101731.54
2019-02-24T23:49:52.898Z,101726.08
2019-02-24T23:52:23.405Z,101732.78
2019-02-24T23:54:53.971Z,101732.39
2019-02-24T23:57:24.515Z,101730.95
2019-02-24T23:59:54.989Z,101732.05
